createdAt,value
2019-03-20T00:04:37.405Z,30.09
2019-03-20T00:09:46.541Z,31.21
2019-03-20T00:14:55.673Z,31.67
2019-03-20T00:20:04.666Z,30.40
2019-03-20T00:25:16.861Z,30.60
2019-03-20T00:30:16.912Z,34.13
2019-03-20T00:35:16.023Z,27.70
2019-03-20T00:40:25.092Z,31.43
2019-03-20T00:45:34.126Z,28.33
2019-03-20T00:50:43.145Z,29.68
2019-03-20T00:55:53.707Z,30.20
2019-03-20T01:01:01.916Z,29.44
2019-03-20T01:06:11.015Z,29.83
2019-03-20T01:11:20.067Z,35.05
2019-03-20T01:16:29.109Z,31.03
2019-03-20T01:21:38.324Z,27.78
2019-03-20T01:26:47.347Z,30.03
2019-03-20T01:31:56.433Z,31.27
2019-03-20T01:37:05.433Z,33.64
2019-03-20T01:42:14.564Z,34.61
2019-03-20T01:47:23.537Z,31.23
2019-03-20T01:52:32.532Z,34.85
2019-03-20T01:57:41.562Z,36.73
2019-03-20T02:02:50.577Z,34.92
2019-03-20T02:07:59.746Z,37.24
2019-03-20T02:13:08.757Z,39.04
2019-03-20T02:18:17.769Z,41.23
2019-03-20T02:23:27.772Z,41.45
2019-03-20T02:28:26.752Z,52.24
2019-03-20T02:33:35.670Z,42.61
2019-03-20T02:38:44.686Z,41.38
2019-03-20T02:43:53.747Z,46.87
2019-03-20T02:49:02.793Z,45.01
2019-03-20T02:54:11.785Z,50.25
2019-03-20T02:59:20.870Z,47.68
2019-03-20T03:04:29.869Z,50.31
2019-03-20T03:09:38.957Z,42.65
2019-03-20T03:14:48.014Z,44.64
2019-03-20T03:19:57.090Z,52.00
2019-03-20T03:25:06.256Z,44.10
2019-03-20T03:30:15.287Z,47.48
2019-03-20T03:35:24.281Z,45.75
2019-03-20T03:40:33.304Z,56.19
2019-03-20T03:45:42.403Z,45.39
2019-03-20T03:50:51.427Z,48.42
2019-03-20T03:56:00.440Z,53.24
2019-03-20T04:01:10.467Z,46.88
2019-03-20T04:06:09.543Z,46.35
2019-03-20T04:11:18.551Z,46.77
2019-03-20T04:16:27.653Z,45.62
2019-03-20T04:21:36.629Z,44.44
2019-03-20T04:26:45.624Z,49.55
2019-03-20T04:31:54.700Z,51.38
2019-03-20T04:37:03.708Z,45.30
2019-03-20T04:42:12.785Z,45.84
2019-03-20T04:47:21.833Z,46.28
2019-03-20T04:52:30.932Z,46.66
2019-03-20T04:57:39.961Z,60.31
2019-03-20T05:02:49.020Z,50.89
2019-03-20T05:07:58.069Z,48.92
2019-03-20T05:13:07.124Z,61.90
2019-03-20T05:18:16.157Z,55.92
2019-03-20T05:23:25.167Z,68.34
2019-03-20T05:28:34.245Z,61.22
2019-03-20T05:33:43.311Z,75.83
2019-03-20T05:38:52.259Z,72.33
2019-03-20T05:44:01.365Z,65.54
2019-03-20T05:49:10.339Z,67.09
2019-03-20T05:54:19.313Z,80.94
2019-03-20T05:59:28.228Z,68.64
2019-03-20T06:04:37.226Z,68.13
2019-03-20T06:09:46.214Z,73.61
2019-03-20T06:13:26.822Z,42.56
2019-03-20T06:18:25.777Z,40.49
2019-03-20T06:23:34.665Z,34.37
2019-03-20T06:28:43.528Z,36.46
2019-03-20T06:33:52.378Z,33.47
2019-03-20T06:39:01.244Z,33.49
2019-03-20T06:44:10.123Z,33.59
2019-03-20T06:49:19.140Z,35.37
2019-03-20T06:54:28.027Z,33.64
2019-03-20T06:59:36.880Z,32.65
2019-03-20T07:04:45.800Z,31.21
2019-03-20T07:09:54.720Z,34.64
2019-03-20T07:15:03.646Z,35.83
2019-03-20T07:20:12.557Z,38.06
2019-03-20T07:25:21.431Z,34.07
2019-03-20T07:30:30.304Z,30.79
2019-03-20T07:35:39.189Z,34.32
2019-03-20T07:40:48.155Z,31.82
2019-03-20T07:45:57.001Z,28.59
2019-03-20T07:51:05.916Z,31.96
2019-03-20T07:56:14.776Z,31.99
2019-03-20T08:01:23.652Z,29.51
2019-03-20T08:06:32.560Z,32.71
2019-03-20T08:11:41.428Z,32.34
2019-03-20T08:16:50.320Z,31.57
2019-03-20T08:21:59.291Z,35.25
2019-03-20T08:27:08.163Z,33.10
2019-03-20T08:32:17.173Z,37.14
2019-03-20T08:37:26.024Z,34.31
2019-03-20T08:42:34.935Z,35.93
2019-03-20T08:47:43.791Z,36.84
2019-03-20T08:52:52.712Z,35.84
2019-03-20T08:58:01.560Z,35.72
2019-03-20T09:03:10.467Z,29.70
2019-03-20T09:08:28.926Z,35.97
2019-03-20T09:13:27.827Z,31.01
2019-03-20T09:18:36.728Z,34.24
2019-03-20T09:23:45.667Z,31.67
2019-03-20T09:28:54.541Z,30.74
2019-03-20T09:34:03.573Z,34.36
2019-03-20T09:39:12.354Z,34.98
2019-03-20T09:44:21.231Z,33.73
2019-03-20T09:49:30.131Z,34.36
2019-03-20T09:54:39.021Z,30.44
2019-03-20T09:59:47.912Z,30.09
2019-03-20T10:04:56.820Z,34.36
2019-03-20T10:10:05.724Z,36.04
2019-03-20T10:15:14.695Z,64.44
2019-03-20T10:20:23.553Z,63.95
2019-03-20T10:25:32.450Z,43.65
2019-03-20T10:30:41.347Z,33.60
2019-03-20T10:35:50.672Z,32.24
2019-03-20T10:40:58.647Z,26.94
2019-03-20T10:46:07.626Z,27.63
2019-03-20T10:51:16.474Z,28.48
2019-03-20T10:56:25.361Z,22.29
2019-03-20T11:01:42.216Z,29.70
2019-03-20T11:06:42.668Z,25.88
2019-03-20T11:11:51.525Z,26.45
2019-03-20T11:17:00.459Z,31.07
2019-03-20T11:22:18.282Z,25.56
2019-03-20T11:27:17.727Z,23.79
2019-03-20T11:32:26.576Z,23.09
2019-03-20T11:37:35.503Z,23.01
2019-03-20T11:42:44.380Z,21.84
2019-03-20T11:47:53.341Z,20.72
2019-03-20T11:53:02.257Z,24.77
2019-03-20T11:58:11.133Z,21.73
2019-03-20T12:03:20.007Z,26.93
2019-03-20T12:08:28.901Z,29.09
2019-03-20T12:13:37.785Z,24.91
2019-03-20T12:18:46.680Z,25.01
2019-03-20T12:23:55.573Z,24.38
2019-03-20T12:29:04.469Z,26.06
2019-03-20T12:34:13.371Z,26.36
2019-03-20T12:39:22.307Z,23.18
2019-03-20T12:44:31.125Z,29.10
2019-03-20T12:49:40.068Z,31.19
2019-03-20T12:54:48.969Z,28.05
2019-03-20T12:59:57.895Z,40.32
2019-03-20T13:05:06.756Z,30.70
2019-03-20T13:10:15.645Z,28.53
2019-03-20T13:15:24.523Z,28.38
2019-03-20T13:20:33.422Z,27.40
2019-03-20T13:25:42.355Z,27.01
2019-03-20T13:30:51.314Z,27.66
2019-03-20T13:36:00.226Z,23.84
2019-03-20T13:41:09.113Z,22.93
2019-03-20T13:46:17.993Z,27.20
2019-03-20T13:51:26.893Z,26.49
2019-03-20T13:56:35.748Z,29.43
2019-03-20T14:01:44.669Z,32.91
2019-03-20T14:06:53.518Z,24.85
2019-03-20T14:12:02.416Z,25.15
2019-03-20T14:17:11.292Z,21.11
2019-03-20T14:22:20.246Z,19.06
2019-03-20T14:27:29.127Z,25.71
2019-03-20T14:32:37.996Z,20.85
2019-03-20T14:37:46.888Z,18.12
2019-03-20T14:42:55.829Z,19.27
2019-03-20T14:48:04.675Z,16.24
2019-03-20T14:53:13.568Z,17.24
2019-03-20T14:58:22.455Z,18.19
2019-03-20T15:03:31.484Z,13.42
2019-03-20T15:08:40.352Z,12.31
2019-03-20T15:13:49.259Z,13.67
2019-03-20T15:18:58.167Z,13.70
2019-03-20T15:24:07.055Z,13.88
2019-03-20T15:29:16.012Z,14.81
2019-03-20T15:34:24.906Z,12.82
2019-03-20T15:39:36.781Z,14.57
2019-03-20T15:44:47.930Z,14.02
2019-03-20T15:49:57.998Z,10.29
2019-03-20T15:54:51.729Z,12.08
2019-03-20T15:59:40.607Z,11.65
2019-03-20T16:04:49.524Z,12.12
2019-03-20T16:10:10.503Z,10.48
2019-03-20T16:14:59.416Z,14.65
2019-03-20T16:20:08.323Z,10.74
2019-03-20T16:25:17.300Z,11.71
2019-03-20T16:30:26.171Z,10.10
2019-03-20T16:35:35.113Z,14.55
2019-03-20T16:40:43.979Z,14.51
2019-03-20T16:45:52.891Z,14.28
2019-03-20T16:51:01.780Z,21.32
2019-03-20T16:56:10.667Z,13.13
2019-03-20T17:01:19.556Z,12.69
2019-03-20T17:06:28.518Z,11.17
2019-03-20T17:11:38.583Z,14.66
2019-03-20T17:16:45.813Z,13.09
2019-03-20T17:21:54.691Z,16.35
2019-03-20T17:27:03.628Z,13.92
2019-03-20T17:32:12.488Z,12.91
2019-03-20T17:37:21.367Z,20.03
2019-03-20T17:42:30.236Z,16.27
2019-03-20T17:47:39.169Z,15.89
2019-03-20T17:52:48.053Z,16.63
2019-03-20T17:57:56.935Z,19.59
2019-03-20T18:03:05.836Z,21.15
2019-03-20T18:08:14.788Z,21.28
2019-03-20T18:13:23.687Z,21.23
2019-03-20T18:18:32.595Z,20.77
2019-03-20T18:23:41.472Z,25.42
2019-03-20T18:28:50.348Z,26.03
2019-03-20T18:33:59.254Z,23.72
2019-03-20T18:39:08.125Z,23.97
2019-03-20T18:44:17.040Z,21.75
2019-03-20T18:49:25.931Z,24.07
2019-03-20T18:54:34.765Z,22.01
2019-03-20T18:59:43.683Z,26.64
2019-03-20T19:04:52.583Z,24.36
2019-03-20T19:10:01.537Z,22.90
2019-03-20T19:15:10.361Z,23.41
2019-03-20T19:20:20.057Z,24.92
2019-03-20T19:25:27.596Z,23.72
2019-03-20T19:30:36.520Z,25.76
2019-03-20T19:35:45.404Z,22.93
2019-03-20T19:40:54.280Z,20.13
2019-03-20T19:46:03.187Z,21.83
2019-03-20T19:51:12.111Z,18.87
2019-03-20T19:56:20.976Z,23.26
2019-03-20T20:01:29.915Z,23.71
2019-03-20T20:06:38.799Z,20.72
2019-03-20T20:11:47.705Z,17.25
2019-03-20T20:16:56.571Z,17.04
2019-03-20T20:22:05.460Z,15.96
2019-03-20T20:27:14.327Z,13.89
2019-03-20T20:32:23.184Z,16.99
2019-03-20T20:37:32.068Z,15.25
2019-03-20T20:42:43.165Z,13.58
2019-03-20T20:47:49.343Z,13.34
2019-03-20T20:52:58.396Z,21.33
2019-03-20T20:58:07.242Z,27.78
2019-03-20T21:03:16.176Z,27.61
2019-03-20T21:08:25.078Z,36.03
2019-03-20T21:13:33.966Z,34.82
2019-03-20T21:18:42.846Z,37.17
2019-03-20T21:23:51.751Z,44.19
2019-03-20T21:29:00.664Z,40.87
2019-03-20T21:34:09.585Z,47.21
2019-03-20T21:39:18.469Z,46.17
2019-03-20T21:44:27.379Z,43.28
2019-03-20T21:49:36.256Z,44.22
2019-03-20T21:54:45.147Z,42.99
2019-03-20T21:59:54.020Z,42.49
2019-03-20T22:05:02.917Z,41.13
2019-03-20T22:10:11.795Z,43.65
2019-03-20T22:15:20.739Z,39.04
2019-03-20T22:20:29.709Z,28.95
2019-03-20T22:25:38.611Z,26.69
2019-03-20T22:30:47.493Z,23.63
2019-03-20T22:35:56.395Z,30.07
2019-03-20T22:41:05.252Z,46.19
2019-03-20T22:46:14.131Z,52.32
2019-03-20T22:51:22.973Z,27.99
2019-03-20T22:56:31.880Z,31.12
2019-03-20T23:01:40.768Z,20.04
2019-03-20T23:06:49.677Z,19.39
2019-03-20T23:11:58.595Z,20.58
2019-03-20T23:17:07.494Z,19.36
2019-03-20T23:22:16.380Z,18.86
2019-03-20T23:27:25.255Z,21.08
2019-03-20T23:32:34.138Z,18.20
2019-03-20T23:37:43.016Z,22.17
2019-03-20T23:42:51.959Z,30.01
2019-03-20T23:48:00.854Z,25.33
2019-03-20T23:53:09.740Z,22.54
2019-03-20T23:58:18.691Z,24.61
